sensor_id;sensor_type;location;lat;lon;timestamp;P1;durP1;ratioP1;P2;durP2;ratioP2
32469;SDS011;18925;48.356;10.864;2022-07-17T00:00:25;1999.90;;;999.90;;
32469;SDS011;18925;48.356;10.864;2022-07-17T00:00:56;1999.90;;;999.90;;
32469;SDS011;18925;48.356;10.864;2022-07-17T00:01:26;1999.90;;;999.90;;
32469;SDS011;18925;48.356;10.864;2022-07-17T00:01:57;1999.90;;;999.90;;
32469;SDS011;18925;48.356;10.864;2022-07-17T00:02:28;1999.90;;;999.90;;
32469;SDS011;18925;48.356;10.864;2022-07-17T00:02:59;1999.90;;;999.90;;
32469;SDS011;18925;48.356;10.864;2022-07-17T00:03:29;1999.90;;;999.90;;
32469;SDS011;18925;48.356;10.864;2022-07-17T00:04:00;1999.90;;;999.90;;
32469;SDS011;18925;48.356;10.864;2022-07-17T00:04:30;1999.90;;;999.90;;
32469;SDS011;18925;48.356;10.864;2022-07-17T00:05:01;1999.90;;;999.90;;
32469;SDS011;18925;48.356;10.864;2022-07-17T00:05:32;1999.90;;;999.90;;
32469;SDS011;18925;48.356;10.864;2022-07-17T00:06:02;1999.90;;;999.90;;
32469;SDS011;18925;48.356;10.864;2022-07-17T00:06:34;1999.90;;;999.90;;
32469;SDS011;18925;48.356;10.864;2022-07-17T00:07:04;1999.90;;;999.90;;
32469;SDS011;18925;48.356;10.864;2022-07-17T00:07:35;1999.90;;;999.90;;
32469;SDS011;18925;48.356;10.864;2022-07-17T00:08:06;1999.90;;;999.90;;
32469;SDS011;18925;48.356;10.864;2022-07-17T00:08:37;1999.90;;;999.90;;
32469;SDS011;18925;48.356;10.864;2022-07-17T00:09:08;1999.90;;;999.90;;
32469;SDS011;18925;48.356;10.864;2022-07-17T00:09:39;1999.90;;;999.90;;
32469;SDS011;18925;48.356;10.864;2022-07-17T00:10:09;1999.90;;;999.90;;
32469;SDS011;18925;48.356;10.864;2022-07-17T00:10:41;1999.90;;;999.90;;
32469;SDS011;18925;48.356;10.864;2022-07-17T00:11:12;1999.90;;;999.90;;
32469;SDS011;18925;48.356;10.864;2022-07-17T00:11:43;1999.90;;;999.90;;
32469;SDS011;18925;48.356;10.864;2022-07-17T00:12:13;1999.90;;;999.90;;
32469;SDS011;18925;48.356;10.864;2022-07-17T00:12:44;1999.90;;;999.90;;
32469;SDS011;18925;48.356;10.864;2022-07-17T00:13:15;1999.90;;;999.90;;
32469;SDS011;18925;48.356;10.864;2022-07-17T00:13:45;1999.90;;;999.90;;
32469;SDS011;18925;48.356;10.864;2022-07-17T00:14:16;1999.90;;;999.90;;
32469;SDS011;18925;48.356;10.864;2022-07-17T00:14:47;1999.90;;;999.90;;
32469;SDS011;18925;48.356;10.864;2022-07-17T00:15:17;1999.90;;;999.90;;
32469;SDS011;18925;48.356;10.864;2022-07-17T00:15:48;1999.90;;;999.90;;
32469;SDS011;18925;48.356;10.864;2022-07-17T00:16:19;1999.90;;;999.90;;
32469;SDS011;18925;48.356;10.864;2022-07-17T00:16:51;1999.90;;;999.90;;
32469;SDS011;18925;48.356;10.864;2022-07-17T00:17:23;1999.90;;;999.90;;
32469;SDS011;18925;48.356;10.864;2022-07-17T00:17:54;1999.90;;;999.90;;
32469;SDS011;18925;48.356;10.864;2022-07-17T00:18:25;1999.90;;;999.90;;
32469;SDS011;18925;48.356;10.864;2022-07-17T00:18:55;1999.90;;;999.90;;
32469;SDS011;18925;48.356;10.864;2022-07-17T00:19:26;1999.90;;;999.90;;
32469;SDS011;18925;48.356;10.864;2022-07-17T00:19:57;1999.90;;;999.90;;
32469;SDS011;18925;48.356;10.864;2022-07-17T00:20:28;1999.90;;;999.90;;
32469;SDS011;18925;48.356;10.864;2022-07-17T00:20:59;1999.90;;;999.90;;
32469;SDS011;18925;48.356;10.864;2022-07-17T00:21:30;1999.90;;;999.90;;
32469;SDS011;18925;48.356;10.864;2022-07-17T00:22:00;1254.45;;;272.35;;
32469;SDS011;18925;48.356;10.864;2022-07-17T00:22:31;1864.80;;;820.28;;
32469;SDS011;18925;48.356;10.864;2022-07-17T00:23:02;1636.28;;;560.75;;
32469;SDS011;18925;48.356;10.864;2022-07-17T00:23:32;892.05;;;319.90;;
32469;SDS011;18925;48.356;10.864;2022-07-17T00:24:03;1713.32;;;550.90;;
32469;SDS011;18925;48.356;10.864;2022-07-17T00:24:36;1189.20;;;644.42;;
32469;SDS011;18925;48.356;10.864;2022-07-17T00:25:06;1020.85;;;624.00;;
32469;SDS011;18925;48.356;10.864;2022-07-17T00:25:37;1046.22;;;642.38;;
32469;SDS011;18925;48.356;10.864;2022-07-17T00:26:09;819.58;;;514.40;;
32469;SDS011;18925;48.356;10.864;2022-07-17T00:26:39;535.42;;;401.98;;
32469;SDS011;18925;48.356;10.864;2022-07-17T00:27:10;827.42;;;634.65;;
32469;SDS011;18925;48.356;10.864;2022-07-17T00:27:41;894.70;;;550.90;;
32469;SDS011;18925;48.356;10.864;2022-07-17T00:28:12;1058.20;;;582.92;;
32469;SDS011;18925;48.356;10.864;2022-07-17T00:28:42;686.55;;;541.17;;
32469;SDS011;18925;48.356;10.864;2022-07-17T00:29:13;567.25;;;392.05;;
32469;SDS011;18925;48.356;10.864;2022-07-17T00:29:44;490.08;;;310.52;;
32469;SDS011;18925;48.356;10.864;2022-07-17T00:30:14;417.77;;;251.48;;
32469;SDS011;18925;48.356;10.864;2022-07-17T00:30:46;569.95;;;481.42;;
32469;SDS011;18925;48.356;10.864;2022-07-17T00:31:17;393.08;;;347.67;;
32469;SDS011;18925;48.356;10.864;2022-07-17T00:31:47;387.52;;;269.65;;
32469;SDS011;18925;48.356;10.864;2022-07-17T00:32:18;159.18;;;107.43;;
32469;SDS011;18925;48.356;10.864;2022-07-17T00:32:48;163.98;;;95.40;;
32469;SDS011;18925;48.356;10.864;2022-07-17T00:33:19;231.32;;;137.95;;
32469;SDS011;18925;48.356;10.864;2022-07-17T00:33:50;271.63;;;147.15;;
32469;SDS011;18925;48.356;10.864;2022-07-17T00:34:20;63.72;;;43.70;;
32469;SDS011;18925;48.356;10.864;2022-07-17T00:34:51;96.82;;;75.63;;
32469;SDS011;18925;48.356;10.864;2022-07-17T00:35:22;61.92;;;55.45;;
32469;SDS011;18925;48.356;10.864;2022-07-17T00:35:52;58.90;;;42.03;;
32469;SDS011;18925;48.356;10.864;2022-07-17T00:36:23;100.47;;;63.67;;
32469;SDS011;18925;48.356;10.864;2022-07-17T00:36:53;47.00;;;27.73;;
32469;SDS011;18925;48.356;10.864;2022-07-17T00:37:24;36.95;;;21.25;;
32469;SDS011;18925;48.356;10.864;2022-07-17T00:37:55;52.05;;;32.92;;
32469;SDS011;18925;48.356;10.864;2022-07-17T00:38:26;22.70;;;16.38;;
32469;SDS011;18925;48.356;10.864;2022-07-17T00:38:56;19.05;;;14.75;;
32469;SDS011;18925;48.356;10.864;2022-07-17T00:39:27;54.03;;;48.13;;
32469;SDS011;18925;48.356;10.864;2022-07-17T00:39:58;54.13;;;38.42;;
32469;SDS011;18925;48.356;10.864;2022-07-17T00:40:29;18.83;;;16.38;;
32469;SDS011;18925;48.356;10.864;2022-07-17T00:40:59;68.95;;;61.65;;
32469;SDS011;18925;48.356;10.864;2022-07-17T00:41:30;17.88;;;16.17;;
32469;SDS011;18925;48.356;10.864;2022-07-17T00:42:01;39.28;;;35.30;;
32469;SDS011;18925;48.356;10.864;2022-07-17T00:42:31;56.28;;;50.50;;
32469;SDS011;18925;48.356;10.864;2022-07-17T00:43:02;16.58;;;13.20;;
32469;SDS011;18925;48.356;10.864;2022-07-17T00:43:33;12.85;;;8.10;;
32469;SDS011;18925;48.356;10.864;2022-07-17T00:44:04;9.35;;;5.90;;
32469;SDS011;18925;48.356;10.864;2022-07-17T00:44:38;7.55;;;5.38;;
32469;SDS011;18925;48.356;10.864;2022-07-17T00:45:11;6.80;;;5.45;;
32469;SDS011;18925;48.356;10.864;2022-07-17T00:45:42;14.32;;;5.03;;
32469;SDS011;18925;48.356;10.864;2022-07-17T00:46:13;8.40;;;6.35;;
32469;SDS011;18925;48.356;10.864;2022-07-17T00:46:43;7.15;;;5.93;;
32469;SDS011;18925;48.356;10.864;2022-07-17T00:47:15;8.48;;;6.85;;
32469;SDS011;18925;48.356;10.864;2022-07-17T00:48:01;16.17;;;5.50;;
32469;SDS011;18925;48.356;10.864;2022-07-17T00:48:34;18.95;;;15.27;;
32469;SDS011;18925;48.356;10.864;2022-07-17T00:49:05;9.50;;;5.03;;
32469;SDS011;18925;48.356;10.864;2022-07-17T00:49:36;14.73;;;9.73;;
32469;SDS011;18925;48.356;10.864;2022-07-17T00:50:07;10.93;;;6.72;;
32469;SDS011;18925;48.356;10.864;2022-07-17T00:50:39;10.55;;;8.43;;
32469;SDS011;18925;48.356;10.864;2022-07-17T00:51:11;12.27;;;9.20;;
32469;SDS011;18925;48.356;10.864;2022-07-17T00:51:41;22.90;;;20.95;;
32469;SDS011;18925;48.356;10.864;2022-07-17T00:52:12;15.07;;;13.77;;
32469;SDS011;18925;48.356;10.864;2022-07-17T00:52:44;17.35;;;15.90;;
32469;SDS011;18925;48.356;10.864;2022-07-17T00:53:14;7.30;;;4.40;;
32469;SDS011;18925;48.356;10.864;2022-07-17T00:53:45;6.43;;;4.45;;
32469;SDS011;18925;48.356;10.864;2022-07-17T00:54:17;10.63;;;6.30;;
32469;SDS011;18925;48.356;10.864;2022-07-17T00:54:49;8.75;;;4.93;;
32469;SDS011;18925;48.356;10.864;2022-07-17T00:55:22;8.68;;;4.18;;
32469;SDS011;18925;48.356;10.864;2022-07-17T00:55:53;8.43;;;4.80;;
32469;SDS011;18925;48.356;10.864;2022-07-17T00:56:25;8.93;;;5.40;;
32469;SDS011;18925;48.356;10.864;2022-07-17T00:56:57;7.72;;;5.85;;
32469;SDS011;18925;48.356;10.864;2022-07-17T00:57:29;8.63;;;5.63;;
32469;SDS011;18925;48.356;10.864;2022-07-17T00:58:01;11.38;;;6.63;;
32469;SDS011;18925;48.356;10.864;2022-07-17T00:58:34;11.07;;;6.50;;
32469;SDS011;18925;48.356;10.864;2022-07-17T00:59:06;12.00;;;9.30;;
32469;SDS011;18925;48.356;10.864;2022-07-17T00:59:37;9.32;;;6.40;;
32469;SDS011;18925;48.356;10.864;2022-07-17T01:00:08;10.98;;;6.03;;
32469;SDS011;18925;48.356;10.864;2022-07-17T01:00:40;18.45;;;6.38;;
32469;SDS011;18925;48.356;10.864;2022-07-17T01:01:11;8.80;;;5.80;;
32469;SDS011;18925;48.356;10.864;2022-07-17T01:01:42;9.82;;;5.25;;
32469;SDS011;18925;48.356;10.864;2022-07-17T01:02:13;13.52;;;5.70;;
32469;SDS011;18925;48.356;10.864;2022-07-17T01:02:47;7.00;;;4.65;;
32469;SDS011;18925;48.356;10.864;2022-07-17T01:03:22;9.82;;;4.85;;
32469;SDS011;18925;48.356;10.864;2022-07-17T01:03:54;9.77;;;4.07;;
32469;SDS011;18925;48.356;10.864;2022-07-17T01:04:25;7.97;;;4.45;;
32469;SDS011;18925;48.356;10.864;2022-07-17T01:04:56;9.88;;;4.47;;
32469;SDS011;18925;48.356;10.864;2022-07-17T01:05:26;6.90;;;4.63;;
32469;SDS011;18925;48.356;10.864;2022-07-17T01:05:57;8.93;;;4.75;;
32469;SDS011;18925;48.356;10.864;2022-07-17T01:06:27;8.35;;;4.57;;
32469;SDS011;18925;48.356;10.864;2022-07-17T01:06:58;8.70;;;4.68;;
32469;SDS011;18925;48.356;10.864;2022-07-17T01:07:30;8.60;;;4.72;;
32469;SDS011;18925;48.356;10.864;2022-07-17T01:08:02;13.02;;;4.90;;
32469;SDS011;18925;48.356;10.864;2022-07-17T01:08:33;7.30;;;4.85;;
32469;SDS011;18925;48.356;10.864;2022-07-17T01:09:04;9.50;;;4.80;;
32469;SDS011;18925;48.356;10.864;2022-07-17T01:09:34;9.45;;;5.03;;
32469;SDS011;18925;48.356;10.864;2022-07-17T01:10:05;8.32;;;4.72;;
32469;SDS011;18925;48.356;10.864;2022-07-17T01:10:36;10.13;;;8.20;;
32469;SDS011;18925;48.356;10.864;2022-07-17T01:11:08;15.32;;;13.82;;
32469;SDS011;18925;48.356;10.864;2022-07-17T01:11:39;28.13;;;24.98;;
32469;SDS011;18925;48.356;10.864;2022-07-17T01:12:10;9.43;;;6.15;;
32469;SDS011;18925;48.356;10.864;2022-07-17T01:12:41;23.45;;;5.68;;
32469;SDS011;18925;48.356;10.864;2022-07-17T01:13:11;7.70;;;4.72;;
32469;SDS011;18925;48.356;10.864;2022-07-17T01:13:42;11.35;;;4.90;;
32469;SDS011;18925;48.356;10.864;2022-07-17T01:14:14;6.40;;;4.38;;
32469;SDS011;18925;48.356;10.864;2022-07-17T01:14:45;9.00;;;4.20;;
32469;SDS011;18925;48.356;10.864;2022-07-17T01:15:16;9.15;;;4.55;;
32469;SDS011;18925;48.356;10.864;2022-07-17T01:15:47;10.55;;;4.03;;
32469;SDS011;18925;48.356;10.864;2022-07-17T01:16:18;7.35;;;4.30;;
32469;SDS011;18925;48.356;10.864;2022-07-17T01:16:49;7.80;;;4.20;;
32469;SDS011;18925;48.356;10.864;2022-07-17T01:17:21;9.07;;;4.05;;
32469;SDS011;18925;48.356;10.864;2022-07-17T01:17:52;9.15;;;4.32;;
32469;SDS011;18925;48.356;10.864;2022-07-17T01:18:22;6.28;;;3.60;;
32469;SDS011;18925;48.356;10.864;2022-07-17T01:18:53;7.82;;;4.18;;
32469;SDS011;18925;48.356;10.864;2022-07-17T01:19:24;9.80;;;4.15;;
32469;SDS011;18925;48.356;10.864;2022-07-17T01:19:54;8.50;;;4.47;;
32469;SDS011;18925;48.356;10.864;2022-07-17T01:20:25;5.57;;;4.20;;
32469;SDS011;18925;48.356;10.864;2022-07-17T01:20:56;6.55;;;4.05;;
32469;SDS011;18925;48.356;10.864;2022-07-17T01:21:43;8.57;;;4.07;;
32469;SDS011;18925;48.356;10.864;2022-07-17T01:22:15;10.00;;;4.20;;
32469;SDS011;18925;48.356;10.864;2022-07-17T01:22:49;5.75;;;4.03;;
32469;SDS011;18925;48.356;10.864;2022-07-17T01:23:21;6.03;;;4.32;;
32469;SDS011;18925;48.356;10.864;2022-07-17T01:23:51;11.07;;;4.55;;
32469;SDS011;18925;48.356;10.864;2022-07-17T01:24:22;5.97;;;4.22;;
32469;SDS011;18925;48.356;10.864;2022-07-17T01:24:53;7.88;;;4.00;;
32469;SDS011;18925;48.356;10.864;2022-07-17T01:25:23;10.48;;;4.53;;
32469;SDS011;18925;48.356;10.864;2022-07-17T01:25:54;8.60;;;4.43;;
32469;SDS011;18925;48.356;10.864;2022-07-17T01:26:25;8.35;;;5.93;;
32469;SDS011;18925;48.356;10.864;2022-07-17T01:26:55;8.48;;;4.30;;
32469;SDS011;18925;48.356;10.864;2022-07-17T01:27:26;10.05;;;4.43;;
32469;SDS011;18925;48.356;10.864;2022-07-17T01:27:57;9.68;;;8.30;;
32469;SDS011;18925;48.356;10.864;2022-07-17T01:28:27;9.40;;;4.10;;
32469;SDS011;18925;48.356;10.864;2022-07-17T01:29:00;12.10;;;5.18;;
32469;SDS011;18925;48.356;10.864;2022-07-17T01:29:31;7.57;;;5.10;;
32469;SDS011;18925;48.356;10.864;2022-07-17T01:30:02;6.30;;;5.00;;
32469;SDS011;18925;48.356;10.864;2022-07-17T01:30:34;15.98;;;5.07;;
32469;SDS011;18925;48.356;10.864;2022-07-17T01:31:05;7.00;;;4.57;;
32469;SDS011;18925;48.356;10.864;2022-07-17T01:31:36;6.75;;;5.05;;
32469;SDS011;18925;48.356;10.864;2022-07-17T01:32:08;17.85;;;9.70;;
32469;SDS011;18925;48.356;10.864;2022-07-17T01:32:40;10.15;;;6.53;;
32469;SDS011;18925;48.356;10.864;2022-07-17T01:33:11;15.27;;;12.93;;
32469;SDS011;18925;48.356;10.864;2022-07-17T01:33:42;38.38;;;33.25;;
32469;SDS011;18925;48.356;10.864;2022-07-17T01:34:13;11.52;;;5.53;;
32469;SDS011;18925;48.356;10.864;2022-07-17T01:34:43;13.52;;;10.05;;
32469;SDS011;18925;48.356;10.864;2022-07-17T01:35:14;20.17;;;15.35;;
32469;SDS011;18925;48.356;10.864;2022-07-17T01:35:45;29.52;;;22.42;;
32469;SDS011;18925;48.356;10.864;2022-07-17T01:36:21;48.75;;;33.25;;
32469;SDS011;18925;48.356;10.864;2022-07-17T01:36:55;41.92;;;28.30;;
32469;SDS011;18925;48.356;10.864;2022-07-17T01:37:25;30.30;;;21.40;;
32469;SDS011;18925;48.356;10.864;2022-07-17T01:37:56;27.05;;;15.48;;
32469;SDS011;18925;48.356;10.864;2022-07-17T01:38:27;34.35;;;21.90;;
32469;SDS011;18925;48.356;10.864;2022-07-17T01:38:57;50.53;;;38.80;;
32469;SDS011;18925;48.356;10.864;2022-07-17T01:39:28;57.28;;;31.52;;
32469;SDS011;18925;48.356;10.864;2022-07-17T01:40:17;74.43;;;42.40;;
32469;SDS011;18925;48.356;10.864;2022-07-17T01:40:48;24.45;;;18.38;;
32469;SDS011;18925;48.356;10.864;2022-07-17T01:41:19;11.85;;;8.60;;
32469;SDS011;18925;48.356;10.864;2022-07-17T01:41:49;17.33;;;13.05;;
32469;SDS011;18925;48.356;10.864;2022-07-17T01:42:23;57.72;;;37.58;;
32469;SDS011;18925;48.356;10.864;2022-07-17T01:42:55;15.90;;;14.23;;
32469;SDS011;18925;48.356;10.864;2022-07-17T01:43:26;72.10;;;43.13;;
32469;SDS011;18925;48.356;10.864;2022-07-17T01:43:56;97.22;;;56.30;;
32469;SDS011;18925;48.356;10.864;2022-07-17T01:44:27;48.60;;;31.23;;
32469;SDS011;18925;48.356;10.864;2022-07-17T01:44:58;71.53;;;31.92;;
32469;SDS011;18925;48.356;10.864;2022-07-17T01:45:29;56.50;;;41.75;;
32469;SDS011;18925;48.356;10.864;2022-07-17T01:45:59;99.57;;;89.18;;
32469;SDS011;18925;48.356;10.864;2022-07-17T01:46:30;140.30;;;73.03;;
32469;SDS011;18925;48.356;10.864;2022-07-17T01:47:01;35.30;;;26.15;;
32469;SDS011;18925;48.356;10.864;2022-07-17T01:47:31;44.45;;;24.55;;
32469;SDS011;18925;48.356;10.864;2022-07-17T01:48:04;96.70;;;61.28;;
32469;SDS011;18925;48.356;10.864;2022-07-17T01:48:35;72.85;;;44.38;;
32469;SDS011;18925;48.356;10.864;2022-07-17T01:49:05;47.47;;;23.98;;
32469;SDS011;18925;48.356;10.864;2022-07-17T01:49:36;54.60;;;45.05;;
32469;SDS011;18925;48.356;10.864;2022-07-17T01:50:07;40.72;;;21.80;;
32469;SDS011;18925;48.356;10.864;2022-07-17T01:50:38;47.17;;;22.27;;
32469;SDS011;18925;48.356;10.864;2022-07-17T01:51:08;40.40;;;27.80;;
32469;SDS011;18925;48.356;10.864;2022-07-17T01:51:39;26.65;;;14.55;;
32469;SDS011;18925;48.356;10.864;2022-07-17T01:52:10;31.23;;;17.85;;
32469;SDS011;18925;48.356;10.864;2022-07-17T01:52:41;63.13;;;37.03;;
32469;SDS011;18925;48.356;10.864;2022-07-17T01:53:13;282.67;;;143.80;;
32469;SDS011;18925;48.356;10.864;2022-07-17T01:53:44;125.00;;;87.75;;
32469;SDS011;18925;48.356;10.864;2022-07-17T01:54:14;102.53;;;85.88;;
32469;SDS011;18925;48.356;10.864;2022-07-17T01:54:45;104.55;;;57.42;;
32469;SDS011;18925;48.356;10.864;2022-07-17T01:55:16;194.90;;;89.03;;
32469;SDS011;18925;48.356;10.864;2022-07-17T01:55:47;34.90;;;22.65;;
32469;SDS011;18925;48.356;10.864;2022-07-17T01:56:18;269.33;;;233.80;;
32469;SDS011;18925;48.356;10.864;2022-07-17T01:56:49;277.52;;;247.57;;
32469;SDS011;18925;48.356;10.864;2022-07-17T01:57:20;244.85;;;218.95;;
32469;SDS011;18925;48.356;10.864;2022-07-17T01:57:50;92.43;;;58.67;;
32469;SDS011;18925;48.356;10.864;2022-07-17T01:58:21;81.95;;;65.00;;
32469;SDS011;18925;48.356;10.864;2022-07-17T01:58:52;122.68;;;89.85;;
32469;SDS011;18925;48.356;10.864;2022-07-17T01:59:22;278.20;;;207.38;;
32469;SDS011;18925;48.356;10.864;2022-07-17T01:59:53;97.55;;;83.05;;
32469;SDS011;18925;48.356;10.864;2022-07-17T02:00:24;65.78;;;45.00;;
32469;SDS011;18925;48.356;10.864;2022-07-17T02:00:55;139.07;;;125.78;;
32469;SDS011;18925;48.356;10.864;2022-07-17T02:01:26;162.15;;;93.82;;
32469;SDS011;18925;48.356;10.864;2022-07-17T02:01:57;90.00;;;54.78;;
32469;SDS011;18925;48.356;10.864;2022-07-17T02:02:27;118.20;;;106.95;;
32469;SDS011;18925;48.356;10.864;2022-07-17T02:02:58;145.88;;;77.93;;
32469;SDS011;18925;48.356;10.864;2022-07-17T02:03:28;58.05;;;37.08;;
32469;SDS011;18925;48.356;10.864;2022-07-17T02:03:59;264.30;;;177.60;;
32469;SDS011;18925;48.356;10.864;2022-07-17T02:04:30;288.75;;;234.95;;
32469;SDS011;18925;48.356;10.864;2022-07-17T02:05:02;105.05;;;77.03;;
32469;SDS011;18925;48.356;10.864;2022-07-17T02:05:33;236.45;;;145.10;;
32469;SDS011;18925;48.356;10.864;2022-07-17T02:06:04;270.92;;;234.23;;
32469;SDS011;18925;48.356;10.864;2022-07-17T02:06:34;72.13;;;58.83;;
32469;SDS011;18925;48.356;10.864;2022-07-17T02:07:05;82.40;;;56.88;;
32469;SDS011;18925;48.356;10.864;2022-07-17T02:07:36;237.45;;;202.48;;
32469;SDS011;18925;48.356;10.864;2022-07-17T02:08:09;228.00;;;179.55;;
32469;SDS011;18925;48.356;10.864;2022-07-17T02:08:40;111.95;;;85.28;;
32469;SDS011;18925;48.356;10.864;2022-07-17T02:09:11;151.77;;;121.00;;
32469;SDS011;18925;48.356;10.864;2022-07-17T02:09:42;287.05;;;255.25;;
32469;SDS011;18925;48.356;10.864;2022-07-17T02:10:12;397.55;;;225.32;;
32469;SDS011;18925;48.356;10.864;2022-07-17T02:10:46;129.93;;;116.10;;
32469;SDS011;18925;48.356;10.864;2022-07-17T02:11:17;264.55;;;218.30;;
32469;SDS011;18925;48.356;10.864;2022-07-17T02:11:48;99.78;;;87.72;;
32469;SDS011;18925;48.356;10.864;2022-07-17T02:12:19;162.60;;;122.10;;
32469;SDS011;18925;48.356;10.864;2022-07-17T02:12:50;148.63;;;87.18;;
32469;SDS011;18925;48.356;10.864;2022-07-17T02:13:21;89.90;;;72.32;;
32469;SDS011;18925;48.356;10.864;2022-07-17T02:13:51;109.18;;;97.45;;
32469;SDS011;18925;48.356;10.864;2022-07-17T02:14:22;206.65;;;112.65;;
32469;SDS011;18925;48.356;10.864;2022-07-17T02:14:53;109.05;;;78.53;;
32469;SDS011;18925;48.356;10.864;2022-07-17T02:15:24;291.63;;;261.63;;
32469;SDS011;18925;48.356;10.864;2022-07-17T02:15:54;575.90;;;522.40;;
32469;SDS011;18925;48.356;10.864;2022-07-17T02:16:25;353.25;;;274.45;;
32469;SDS011;18925;48.356;10.864;2022-07-17T02:16:56;483.60;;;425.15;;
32469;SDS011;18925;48.356;10.864;2022-07-17T02:17:27;1331.82;;;779.85;;
32469;SDS011;18925;48.356;10.864;2022-07-17T02:17:57;1262.93;;;815.47;;
32469;SDS011;18925;48.356;10.864;2022-07-17T02:18:28;1161.22;;;649.85;;
32469;SDS011;18925;48.356;10.864;2022-07-17T02:18:59;1999.90;;;999.90;;
32469;SDS011;18925;48.356;10.864;2022-07-17T02:19:29;1999.90;;;927.15;;
32469;SDS011;18925;48.356;10.864;2022-07-17T02:20:00;1999.90;;;940.63;;
32469;SDS011;18925;48.356;10.864;2022-07-17T02:20:30;1999.90;;;997.47;;
32469;SDS011;18925;48.356;10.864;2022-07-17T02:21:01;1870.88;;;715.13;;
32469;SDS011;18925;48.356;10.864;2022-07-17T02:21:32;311.38;;;246.95;;
32469;SDS011;18925;48.356;10.864;2022-07-17T02:22:03;1108.57;;;766.30;;
32469;SDS011;18925;48.356;10.864;2022-07-17T02:22:34;820.63;;;674.08;;
32469;SDS011;18925;48.356;10.864;2022-07-17T02:23:06;210.25;;;162.77;;
32469;SDS011;18925;48.356;10.864;2022-07-17T02:23:36;150.35;;;112.93;;
32469;SDS011;18925;48.356;10.864;2022-07-17T02:24:07;1479.95;;;819.85;;
32469;SDS011;18925;48.356;10.864;2022-07-17T02:24:38;1999.90;;;999.90;;
32469;SDS011;18925;48.356;10.864;2022-07-17T02:25:09;1999.90;;;986.50;;
32469;SDS011;18925;48.356;10.864;2022-07-17T02:25:40;911.85;;;463.90;;
32469;SDS011;18925;48.356;10.864;2022-07-17T02:26:10;903.83;;;600.90;;
32469;SDS011;18925;48.356;10.864;2022-07-17T02:26:41;1639.07;;;909.00;;
32469;SDS011;18925;48.356;10.864;2022-07-17T02:27:11;1991.85;;;934.95;;
32469;SDS011;18925;48.356;10.864;2022-07-17T02:27:42;1999.90;;;799.28;;
32469;SDS011;18925;48.356;10.864;2022-07-17T02:28:13;1999.90;;;993.00;;
32469;SDS011;18925;48.356;10.864;2022-07-17T02:28:44;1264.80;;;720.63;;
32469;SDS011;18925;48.356;10.864;2022-07-17T02:29:14;1999.90;;;904.15;;
32469;SDS011;18925;48.356;10.864;2022-07-17T02:29:45;271.05;;;242.50;;
32469;SDS011;18925;48.356;10.864;2022-07-17T02:30:16;1999.90;;;999.90;;
32469;SDS011;18925;48.356;10.864;2022-07-17T02:30:48;1999.90;;;999.90;;
32469;SDS011;18925;48.356;10.864;2022-07-17T02:31:19;1883.93;;;766.33;;
32469;SDS011;18925;48.356;10.864;2022-07-17T02:31:49;1004.58;;;753.28;;
32469;SDS011;18925;48.356;10.864;2022-07-17T02:32:20;335.83;;;178.38;;
32469;SDS011;18925;48.356;10.864;2022-07-17T02:32:51;340.65;;;306.65;;
32469;SDS011;18925;48.356;10.864;2022-07-17T02:33:22;612.33;;;541.65;;
32469;SDS011;18925;48.356;10.864;2022-07-17T02:33:52;1247.28;;;765.78;;
32469;SDS011;18925;48.356;10.864;2022-07-17T02:34:23;979.38;;;676.00;;
32469;SDS011;18925;48.356;10.864;2022-07-17T02:34:53;1999.90;;;999.90;;
32469;SDS011;18925;48.356;10.864;2022-07-17T02:35:24;1917.30;;;854.08;;
32469;SDS011;18925;48.356;10.864;2022-07-17T02:35:55;1365.75;;;857.90;;
32469;SDS011;18925;48.356;10.864;2022-07-17T02:36:25;1386.07;;;830.53;;
32469;SDS011;18925;48.356;10.864;2022-07-17T02:36:56;164.77;;;149.43;;
32469;SDS011;18925;48.356;10.864;2022-07-17T02:37:27;185.80;;;120.57;;
32469;SDS011;18925;48.356;10.864;2022-07-17T02:37:57;519.47;;;415.55;;
32469;SDS011;18925;48.356;10.864;2022-07-17T02:38:28;567.42;;;505.58;;
32469;SDS011;18925;48.356;10.864;2022-07-17T02:38:59;581.65;;;455.20;;
32469;SDS011;18925;48.356;10.864;2022-07-17T02:39:30;316.48;;;265.30;;
32469;SDS011;18925;48.356;10.864;2022-07-17T02:40:02;709.85;;;363.55;;
32469;SDS011;18925;48.356;10.864;2022-07-17T02:40:34;385.98;;;339.05;;
32469;SDS011;18925;48.356;10.864;2022-07-17T02:41:04;1241.88;;;545.63;;
32469;SDS011;18925;48.356;10.864;2022-07-17T02:41:35;1107.97;;;761.75;;
32469;SDS011;18925;48.356;10.864;2022-07-17T02:42:06;523.50;;;466.05;;
32469;SDS011;18925;48.356;10.864;2022-07-17T02:42:36;138.05;;;124.28;;
32469;SDS011;18925;48.356;10.864;2022-07-17T02:43:07;154.35;;;140.15;;
32469;SDS011;18925;48.356;10.864;2022-07-17T02:43:38;27.83;;;22.17;;
32469;SDS011;18925;48.356;10.864;2022-07-17T02:44:09;112.07;;;103.65;;
32469;SDS011;18925;48.356;10.864;2022-07-17T02:44:39;142.68;;;130.95;;
32469;SDS011;18925;48.356;10.864;2022-07-17T02:45:10;116.82;;;106.60;;
32469;SDS011;18925;48.356;10.864;2022-07-17T02:45:40;80.90;;;73.10;;
32469;SDS011;18925;48.356;10.864;2022-07-17T02:46:11;38.10;;;34.78;;
32469;SDS011;18925;48.356;10.864;2022-07-17T02:46:43;26.50;;;23.77;;
32469;SDS011;18925;48.356;10.864;2022-07-17T02:47:20;253.70;;;235.77;;
32469;SDS011;18925;48.356;10.864;2022-07-17T02:47:54;241.80;;;220.20;;
32469;SDS011;18925;48.356;10.864;2022-07-17T02:48:25;64.45;;;58.78;;
32469;SDS011;18925;48.356;10.864;2022-07-17T02:48:56;527.15;;;481.27;;
32469;SDS011;18925;48.356;10.864;2022-07-17T02:49:26;423.48;;;380.58;;
32469;SDS011;18925;48.356;10.864;2022-07-17T02:49:57;53.17;;;40.75;;
32469;SDS011;18925;48.356;10.864;2022-07-17T02:50:29;92.45;;;84.43;;
32469;SDS011;18925;48.356;10.864;2022-07-17T02:51:00;64.72;;;60.25;;
32469;SDS011;18925;48.356;10.864;2022-07-17T02:51:32;153.13;;;142.65;;
32469;SDS011;18925;48.356;10.864;2022-07-17T02:52:02;257.35;;;234.50;;
32469;SDS011;18925;48.356;10.864;2022-07-17T02:52:33;741.85;;;668.35;;
32469;SDS011;18925;48.356;10.864;2022-07-17T02:53:04;1007.72;;;527.20;;
32469;SDS011;18925;48.356;10.864;2022-07-17T02:53:35;217.05;;;178.32;;
32469;SDS011;18925;48.356;10.864;2022-07-17T02:54:06;455.55;;;416.25;;
32469;SDS011;18925;48.356;10.864;2022-07-17T02:54:36;595.28;;;534.65;;
32469;SDS011;18925;48.356;10.864;2022-07-17T02:55:07;185.02;;;171.90;;
32469;SDS011;18925;48.356;10.864;2022-07-17T02:55:38;960.95;;;522.30;;
32469;SDS011;18925;48.356;10.864;2022-07-17T02:56:09;1522.05;;;636.38;;
32469;SDS011;18925;48.356;10.864;2022-07-17T02:56:39;202.93;;;183.73;;
32469;SDS011;18925;48.356;10.864;2022-07-17T02:57:10;147.88;;;134.63;;
32469;SDS011;18925;48.356;10.864;2022-07-17T02:57:40;665.15;;;596.22;;